createdAt,value
2023-02-11T00:00:03.944Z,1027.27
2023-02-11T00:01:03.963Z,1027.28
2023-02-11T00:02:03.915Z,1027.29
2023-02-11T00:03:03.957Z,1027.30
2023-02-11T00:04:03.922Z,1027.33
2023-02-11T00:05:03.933Z,1027.34
2023-02-11T00:06:03.861Z,1027.34
2023-02-11T00:07:03.841Z,1027.30
2023-02-11T00:08:03.835Z,1027.28
2023-02-11T00:09:03.871Z,1027.26
2023-02-11T00:10:03.832Z,1027.26
2023-02-11T00:11:03.801Z,1027.27
2023-02-11T00:12:03.814Z,1027.30
2023-02-11T00:13:03.842Z,1027.29
2023-02-11T00:14:03.779Z,1027.28
2023-02-11T00:15:03.779Z,1027.27
2023-02-11T00:16:03.765Z,1027.27
2023-02-11T00:17:03.797Z,1027.28
2023-02-11T00:18:03.734Z,1027.29
2023-02-11T00:19:03.726Z,1027.31
2023-02-11T00:20:05.420Z,1027.32
2023-02-11T00:21:03.718Z,1027.34
2023-02-11T00:22:03.724Z,1027.31
2023-02-11T00:23:03.704Z,1027.26
2023-02-11T00:24:03.707Z,1027.20
2023-02-11T00:25:03.701Z,1027.21
2023-02-11T00:26:03.652Z,1027.19
2023-02-11T00:27:03.686Z,1027.16
2023-02-11T00:28:03.711Z,1027.15
2023-02-11T00:29:03.626Z,1027.15
2023-02-11T00:30:03.668Z,1027.14
2023-02-11T00:31:03.778Z,1027.14
2023-02-11T00:32:03.648Z,1027.14
2023-02-11T00:33:03.586Z,1027.18
2023-02-11T00:34:03.590Z,1027.24
2023-02-11T00:35:03.560Z,1027.25
2023-02-11T00:36:03.551Z,1027.23
2023-02-11T00:37:03.536Z,1027.24
2023-02-11T00:38:03.533Z,1027.25
2023-02-11T00:39:03.569Z,1027.25
2023-02-11T00:40:06.578Z,1027.23
2023-02-11T00:41:03.503Z,1027.20
2023-02-11T00:42:03.544Z,1027.19
2023-02-11T00:43:03.494Z,1027.18
2023-02-11T00:44:03.485Z,1027.15
2023-02-11T00:45:03.512Z,1027.11
2023-02-11T00:46:03.523Z,1027.07
2023-02-11T00:47:03.477Z,1027.04
2023-02-11T00:48:03.455Z,1027.04
2023-02-11T00:49:03.438Z,1027.09
2023-02-11T00:50:03.401Z,1027.11
2023-02-11T00:51:03.403Z,1027.07
2023-02-11T00:52:03.422Z,1027.03
2023-02-11T00:53:03.410Z,1027.05
2023-02-11T00:54:03.397Z,1027.06
2023-02-11T00:55:03.367Z,1027.06
2023-02-11T00:56:03.375Z,1027.02
2023-02-11T00:57:03.353Z,1027.01
2023-02-11T00:58:03.389Z,1027.02
2023-02-11T00:59:03.349Z,1027.04
2023-02-11T01:00:03.321Z,1027.04
2023-02-11T01:01:03.313Z,1027.02
2023-02-11T01:02:03.324Z,1027.01
2023-02-11T01:03:03.290Z,1027.03
2023-02-11T01:04:03.337Z,1027.02
2023-02-11T01:05:03.291Z,1027.02
2023-02-11T01:06:03.276Z,1027.01
2023-02-11T01:07:03.246Z,1027.00
2023-02-11T01:08:03.237Z,1027.00
2023-02-11T01:09:03.243Z,1027.01
2023-02-11T01:10:03.258Z,1027.02
2023-02-11T01:11:03.198Z,1027.03
2023-02-11T01:12:03.192Z,1027.03
2023-02-11T01:13:03.176Z,1027.01
2023-02-11T01:14:03.172Z,1026.98
2023-02-11T01:15:03.186Z,1026.99
2023-02-11T01:16:03.224Z,1027.00
2023-02-11T01:17:03.144Z,1027.02
2023-02-11T01:18:03.133Z,1027.01
2023-02-11T01:19:03.144Z,1027.00
2023-02-11T01:20:03.104Z,1027.01
2023-02-11T01:21:03.139Z,1027.01
2023-02-11T01:22:03.121Z,1027.01
2023-02-11T01:23:03.090Z,1026.97
2023-02-11T01:24:03.089Z,1026.93
2023-02-11T01:25:03.061Z,1026.92
2023-02-11T01:26:03.070Z,1026.94
2023-02-11T01:27:03.075Z,1026.93
2023-02-11T01:28:03.084Z,1026.92
2023-02-11T01:29:03.039Z,1026.91
2023-02-11T01:30:03.042Z,1026.91
2023-02-11T01:31:03.037Z,1026.90
2023-02-11T01:32:03.046Z,1026.89
2023-02-11T01:33:02.975Z,1026.88
2023-02-11T01:34:03.019Z,1026.86
2023-02-11T01:35:02.966Z,1026.87
2023-02-11T01:36:02.973Z,1026.88
2023-02-11T01:37:02.948Z,1026.88
2023-02-11T01:38:02.950Z,1026.89
2023-02-11T01:39:02.909Z,1026.91
2023-02-11T01:40:02.918Z,1026.91
2023-02-11T01:41:02.978Z,1026.92
2023-02-11T01:42:02.931Z,1026.92
2023-02-11T01:43:02.934Z,1026.91
2023-02-11T01:44:02.860Z,1026.91
2023-02-11T01:45:02.866Z,1026.90
2023-02-11T01:46:02.923Z,1026.88
2023-02-11T01:47:02.872Z,1026.88
2023-02-11T01:48:02.833Z,1026.87
2023-02-11T01:49:02.941Z,1026.85
2023-02-11T01:50:02.835Z,1026.84
2023-02-11T01:51:02.796Z,1026.82
2023-02-11T01:52:02.790Z,1026.78
2023-02-11T01:53:02.798Z,1026.76
2023-02-11T01:54:02.808Z,1026.75
2023-02-11T01:55:02.788Z,1026.73
2023-02-11T01:56:02.745Z,1026.72
2023-02-11T01:57:02.787Z,1026.71
2023-02-11T01:58:02.780Z,1026.70
2023-02-11T01:59:02.749Z,1026.68
2023-02-11T02:00:02.718Z,1026.66
2023-02-11T02:01:02.686Z,1026.64
2023-02-11T02:02:02.693Z,1026.62
2023-02-11T02:03:02.706Z,1026.59
2023-02-11T02:04:02.835Z,1026.54
2023-02-11T02:05:02.724Z,1026.51
2023-02-11T02:06:02.669Z,1026.50
2023-02-11T02:07:02.693Z,1026.49
2023-02-11T02:08:02.665Z,1026.49
2023-02-11T02:09:02.616Z,1026.50
2023-02-11T02:10:02.625Z,1026.53
2023-02-11T02:11:02.647Z,1026.54
2023-02-11T02:12:02.612Z,1026.55
2023-02-11T02:13:02.581Z,1026.58
2023-02-11T02:14:02.595Z,1026.60
2023-02-11T02:15:02.589Z,1026.62
2023-02-11T02:16:02.615Z,1026.63
2023-02-11T02:17:02.535Z,1026.61
2023-02-11T02:18:02.545Z,1026.59
2023-02-11T02:19:02.502Z,1026.56
2023-02-11T02:20:02.553Z,1026.54
2023-02-11T02:21:02.488Z,1026.50
2023-02-11T02:22:02.490Z,1026.48
2023-02-11T02:23:02.488Z,1026.47
2023-02-11T02:24:02.505Z,1026.45
2023-02-11T02:25:02.441Z,1026.41
2023-02-11T02:26:02.494Z,1026.39
2023-02-11T02:27:02.429Z,1026.37
2023-02-11T02:28:02.477Z,1026.36
2023-02-11T02:29:02.433Z,1026.34
2023-02-11T02:30:02.474Z,1026.33
2023-02-11T02:31:02.533Z,1026.32
2023-02-11T02:32:02.439Z,1026.32
2023-02-11T02:33:16.744Z,1026.33
2023-02-11T02:34:02.443Z,1026.32
2023-02-11T02:35:02.372Z,1026.31
2023-02-11T02:36:02.350Z,1026.32
2023-02-11T02:37:02.364Z,1026.35
2023-02-11T02:38:02.309Z,1026.35
2023-02-11T02:39:02.352Z,1026.34
2023-02-11T02:40:02.291Z,1026.37
2023-02-11T02:41:02.310Z,1026.36
2023-02-11T02:42:02.278Z,1026.37
2023-02-11T02:43:02.311Z,1026.39
2023-02-11T02:44:02.280Z,1026.41
2023-02-11T02:45:02.271Z,1026.43
2023-02-11T02:46:02.229Z,1026.44
2023-02-11T02:47:02.358Z,1026.46
2023-02-11T02:48:02.212Z,1026.50
2023-02-11T02:49:02.244Z,1026.50
2023-02-11T02:50:02.183Z,1026.51
2023-02-11T02:51:02.242Z,1026.52
2023-02-11T02:52:02.167Z,1026.48
2023-02-11T02:53:02.183Z,1026.45
2023-02-11T02:54:02.214Z,1026.42
2023-02-11T02:55:02.198Z,1026.38
2023-02-11T02:56:02.141Z,1026.37
2023-02-11T02:57:02.186Z,1026.38
2023-02-11T02:58:02.121Z,1026.41
2023-02-11T02:59:02.133Z,1026.44
2023-02-11T03:00:02.143Z,1026.44
2023-02-11T03:01:02.149Z,1026.44
2023-02-11T03:02:02.086Z,1026.45
2023-02-11T03:03:02.081Z,1026.42
2023-02-11T03:04:02.118Z,1026.38
2023-02-11T03:05:02.124Z,1026.34
2023-02-11T03:06:02.027Z,1026.32
2023-02-11T03:07:02.040Z,1026.28
2023-02-11T03:08:02.014Z,1026.26
2023-02-11T03:09:02.018Z,1026.24
2023-02-11T03:10:02.016Z,1026.23
2023-02-11T03:11:02.051Z,1026.24
2023-02-11T03:12:02.020Z,1026.25
2023-02-11T03:13:01.962Z,1026.28
2023-02-11T03:14:01.962Z,1026.28
2023-02-11T03:15:01.944Z,1026.29
2023-02-11T03:16:01.987Z,1026.31
2023-02-11T03:17:01.935Z,1026.33
2023-02-11T03:18:01.976Z,1026.34
2023-02-11T03:19:01.941Z,1026.35
2023-02-11T03:20:01.891Z,1026.35
2023-02-11T03:21:01.909Z,1026.35
2023-02-11T03:22:01.906Z,1026.35
2023-02-11T03:23:01.877Z,1026.35
2023-02-11T03:24:01.873Z,1026.34
2023-02-11T03:25:01.864Z,1026.32
2023-02-11T03:26:01.875Z,1026.31
2023-02-11T03:27:01.820Z,1026.29
2023-02-11T03:28:01.886Z,1026.28
2023-02-11T03:29:01.811Z,1026.27
2023-02-11T03:30:01.821Z,1026.25
2023-02-11T03:31:01.817Z,1026.23
2023-02-11T03:32:01.787Z,1026.20
2023-02-11T03:33:01.811Z,1026.16
2023-02-11T03:34:01.756Z,1026.12
2023-02-11T03:35:01.764Z,1026.08
2023-02-11T03:36:01.730Z,1026.04
2023-02-11T03:37:01.725Z,1026.00
2023-02-11T03:38:01.711Z,1025.98
2023-02-11T03:39:01.753Z,1025.99
2023-02-11T03:40:01.698Z,1025.98
2023-02-11T03:41:01.707Z,1025.99
2023-02-11T03:42:01.693Z,1026.01
2023-02-11T03:43:01.669Z,1026.03
2023-02-11T03:44:01.693Z,1026.05
2023-02-11T03:45:01.669Z,1026.06
2023-02-11T03:46:01.741Z,1026.05
2023-02-11T03:47:01.637Z,1026.02
2023-02-11T03:48:01.632Z,1025.97
2023-02-11T03:49:01.655Z,1025.91
2023-02-11T03:50:01.599Z,1025.85
2023-02-11T03:51:01.586Z,1025.81
2023-02-11T03:52:01.577Z,1025.76
2023-02-11T03:53:01.578Z,1025.73
2023-02-11T03:54:01.574Z,1025.70
2023-02-11T03:55:01.560Z,1025.68
2023-02-11T03:56:01.553Z,1025.64
2023-02-11T03:57:01.562Z,1025.62
2023-02-11T03:58:01.548Z,1025.59
2023-02-11T03:59:01.535Z,1025.56
2023-02-11T04:00:01.536Z,1025.53
2023-02-11T04:01:01.533Z,1025.48
2023-02-11T04:02:01.514Z,1025.44
2023-02-11T04:03:01.580Z,1025.43
2023-02-11T04:04:01.445Z,1025.40
2023-02-11T04:05:01.462Z,1025.37
2023-02-11T04:06:01.461Z,1025.36
2023-02-11T04:07:01.452Z,1025.33
2023-02-11T04:08:01.440Z,1025.31
2023-02-11T04:09:01.398Z,1025.31
2023-02-11T04:10:01.438Z,1025.32
2023-02-11T04:11:01.395Z,1025.31
2023-02-11T04:12:01.412Z,1025.30
2023-02-11T04:13:01.364Z,1025.31
2023-02-11T04:14:01.352Z,1025.33
2023-02-11T04:15:01.343Z,1025.32
2023-02-11T04:16:01.406Z,1025.30
2023-02-11T04:17:01.335Z,1025.31
2023-02-11T04:18:01.335Z,1025.36
2023-02-11T04:19:01.349Z,1025.44
2023-02-11T04:20:01.333Z,1025.50
2023-02-11T04:21:01.323Z,1025.53
2023-02-11T04:22:01.286Z,1025.55
2023-02-11T04:23:01.282Z,1025.58
2023-02-11T04:24:01.279Z,1025.59
2023-02-11T04:25:01.243Z,1025.60
2023-02-11T04:26:01.256Z,1025.61
2023-02-11T04:27:01.240Z,1025.64
2023-02-11T04:28:01.306Z,1025.66
2023-02-11T04:29:01.209Z,1025.67
2023-02-11T04:30:01.217Z,1025.67
2023-02-11T04:31:01.272Z,1025.66
2023-02-11T04:32:01.345Z,1025.64
2023-02-11T04:33:01.173Z,1025.65
2023-02-11T04:34:01.158Z,1025.66
2023-02-11T04:35:01.149Z,1025.66
2023-02-11T04:36:01.169Z,1025.66
2023-02-11T04:37:01.112Z,1025.67
2023-02-11T04:38:01.126Z,1025.68
2023-02-11T04:39:01.102Z,1025.69
2023-02-11T04:40:01.104Z,1025.72
2023-02-11T04:41:01.124Z,1025.75
2023-02-11T04:42:01.068Z,1025.77
2023-02-11T04:43:01.076Z,1025.78
2023-02-11T04:44:01.074Z,1025.79
2023-02-11T04:45:01.038Z,1025.80
2023-02-11T04:46:01.066Z,1025.81
2023-02-11T04:47:01.026Z,1025.84
2023-02-11T04:48:01.010Z,1025.87
2023-02-11T04:49:01.044Z,1025.89
2023-02-11T04:50:00.983Z,1025.87
2023-02-11T04:51:01.012Z,1025.85
2023-02-11T04:52:00.975Z,1025.84
2023-02-11T04:53:00.982Z,1025.82
2023-02-11T04:54:00.963Z,1025.81
2023-02-11T04:55:00.964Z,1025.81
2023-02-11T04:56:00.940Z,1025.81
2023-02-11T04:57:00.917Z,1025.81
2023-02-11T04:58:00.924Z,1025.79
2023-02-11T04:59:00.888Z,1025.77
2023-02-11T05:00:00.909Z,1025.75
2023-02-11T05:01:00.925Z,1025.73
2023-02-11T05:02:00.864Z,1025.71
2023-02-11T05:03:00.880Z,1025.68
2023-02-11T05:04:00.881Z,1025.69
2023-02-11T05:05:00.881Z,1025.70
2023-02-11T05:06:00.815Z,1025.70
2023-02-11T05:07:00.838Z,1025.69
2023-02-11T05:08:00.815Z,1025.67
2023-02-11T05:09:00.817Z,1025.65
2023-02-11T05:10:00.836Z,1025.62
2023-02-11T05:11:00.762Z,1025.60
2023-02-11T05:12:00.806Z,1025.60
2023-02-11T05:13:00.790Z,1025.62
2023-02-11T05:14:00.734Z,1025.62
2023-02-11T05:15:00.761Z,1025.60
2023-02-11T05:16:00.730Z,1025.56
2023-02-11T05:17:00.791Z,1025.50
2023-02-11T05:18:00.701Z,1025.43
2023-02-11T05:19:00.707Z,1025.36
2023-02-11T05:20:00.687Z,1025.30
2023-02-11T05:21:00.667Z,1025.24
2023-02-11T05:22:03.309Z,1025.18
2023-02-11T05:23:00.677Z,1025.16
2023-02-11T05:24:00.658Z,1025.16
2023-02-11T05:25:00.640Z,1025.14
2023-02-11T05:26:00.642Z,1025.12
2023-02-11T05:27:00.615Z,1025.11
2023-02-11T05:28:00.658Z,1025.11
2023-02-11T05:29:00.599Z,1025.12
2023-02-11T05:30:00.602Z,1025.15
2023-02-11T05:31:00.681Z,1025.20
2023-02-11T05:32:00.543Z,1025.24
2023-02-11T05:33:00.643Z,1025.26
2023-02-11T05:34:00.546Z,1025.26
2023-02-11T05:35:00.550Z,1025.27
2023-02-11T05:36:00.511Z,1025.27
2023-02-11T05:37:00.629Z,1025.26
2023-02-11T05:38:00.516Z,1025.28
2023-02-11T05:39:00.489Z,1025.32
2023-02-11T05:40:00.492Z,1025.36
2023-02-11T05:41:00.481Z,1025.40
2023-02-11T05:42:00.485Z,1025.41
2023-02-11T05:43:00.495Z,1025.41
2023-02-11T05:44:00.453Z,1025.39
2023-02-11T05:45:00.432Z,1025.38
2023-02-11T05:46:00.489Z,1025.38
2023-02-11T05:47:00.425Z,1025.39
2023-02-11T05:48:00.387Z,1025.41
2023-02-11T05:49:00.430Z,1025.44
2023-02-11T05:50:00.513Z,1025.49
2023-02-11T05:51:00.388Z,1025.54
2023-02-11T05:52:00.351Z,1025.59
2023-02-11T05:53:00.340Z,1025.63
2023-02-11T05:54:00.362Z,1025.64
2023-02-11T05:55:00.324Z,1025.66
2023-02-11T05:56:00.396Z,1025.67
2023-02-11T05:57:00.307Z,1025.66
2023-02-11T05:58:00.311Z,1025.64
2023-02-11T05:59:00.334Z,1025.62
2023-02-11T06:00:00.328Z,1025.60
2023-02-11T06:01:00.267Z,1025.58
2023-02-11T06:02:00.276Z,1025.54
2023-02-11T06:03:00.337Z,1025.52
2023-02-11T06:04:00.343Z,1025.54
2023-02-11T06:05:00.247Z,1025.56
2023-02-11T06:06:00.207Z,1025.59
2023-02-11T06:07:00.219Z,1025.62
2023-02-11T06:08:00.313Z,1025.64
2023-02-11T06:09:00.230Z,1025.65
2023-02-11T06:10:00.224Z,1025.66
2023-02-11T06:11:00.176Z,1025.66
2023-02-11T06:12:00.143Z,1025.66
2023-02-11T06:13:00.192Z,1025.68
2023-02-11T06:14:00.103Z,1025.70
2023-02-11T06:15:00.139Z,1025.71
2023-02-11T06:16:00.219Z,1025.71
2023-02-11T06:17:00.166Z,1025.71
2023-02-11T06:18:00.096Z,1025.74
2023-02-11T06:19:00.051Z,1025.76
2023-02-11T06:20:00.034Z,1025.76
2023-02-11T06:21:00.042Z,1025.74
2023-02-11T06:22:00.027Z,1025.71
2023-02-11T06:22:59.991Z,1025.66
2023-02-11T06:23:59.968Z,1025.64
2023-02-11T06:25:02.009Z,1025.65
2023-02-11T06:26:00.008Z,1025.66
2023-02-11T06:26:59.934Z,1025.68
2023-02-11T06:27:59.949Z,1025.72
2023-02-11T06:28:59.914Z,1025.74
2023-02-11T06:29:59.943Z,1025.76
2023-02-11T06:31:00.062Z,1025.77
2023-02-11T06:32:00.019Z,1025.77
2023-02-11T06:32:59.878Z,1025.78
2023-02-11T06:33:59.884Z,1025.80
2023-02-11T06:34:59.877Z,1025.80
2023-02-11T06:35:59.896Z,1025.79
2023-02-11T06:36:59.866Z,1025.77
2023-02-11T06:37:59.838Z,1025.77
2023-02-11T06:38:59.812Z,1025.77
2023-02-11T06:39:59.806Z,1025.78
2023-02-11T06:40:59.837Z,1025.79
2023-02-11T06:41:59.819Z,1025.81
2023-02-11T06:42:59.777Z,1025.80
2023-02-11T06:43:59.802Z,1025.80
2023-02-11T06:44:59.784Z,1025.80
2023-02-11T06:45:59.738Z,1025.79
2023-02-11T06:46:59.756Z,1025.78
2023-02-11T06:47:59.723Z,1025.79
2023-02-11T06:48:59.756Z,1025.80
2023-02-11T06:49:59.719Z,1025.79
2023-02-11T06:50:59.697Z,1025.75
2023-02-11T06:51:59.702Z,1025.72
2023-02-11T06:52:59.706Z,1025.69
2023-02-11T06:53:59.665Z,1025.64
2023-02-11T06:54:59.661Z,1025.61
2023-02-11T06:55:59.699Z,1025.59
2023-02-11T06:56:59.634Z,1025.57
2023-02-11T06:57:59.712Z,1025.57
2023-02-11T06:58:59.638Z,1025.58
2023-02-11T06:59:59.599Z,1025.58
2023-02-11T07:00:59.600Z,1025.59
2023-02-11T07:01:59.639Z,1025.59
2023-02-11T07:02:59.724Z,1025.58
2023-02-11T07:03:59.560Z,1025.59
2023-02-11T07:04:59.574Z,1025.61
2023-02-11T07:05:59.553Z,1025.61
2023-02-11T07:06:59.549Z,1025.60
2023-02-11T07:07:59.513Z,1025.58
2023-02-11T07:08:59.534Z,1025.57
2023-02-11T07:09:59.496Z,1025.56
2023-02-11T07:10:59.503Z,1025.56
2023-02-11T07:11:59.516Z,1025.56
2023-02-11T07:12:59.476Z,1025.59
2023-02-11T07:13:59.517Z,1025.61
2023-02-11T07:14:59.446Z,1025.62
2023-02-11T07:15:59.523Z,1025.60
2023-02-11T07:16:59.422Z,1025.55
2023-02-11T07:17:59.425Z,1025.50
2023-02-11T07:18:59.456Z,1025.46
2023-02-11T07:19:59.416Z,1025.44
2023-02-11T07:20:59.421Z,1025.43
2023-02-11T07:21:59.431Z,1025.45
2023-02-11T07:22:59.394Z,1025.44
2023-02-11T07:23:59.419Z,1025.46
2023-02-11T07:24:59.406Z,1025.49
2023-02-11T07:25:59.372Z,1025.51
2023-02-11T07:26:59.324Z,1025.53
2023-02-11T07:27:59.418Z,1025.52
2023-02-11T07:28:59.374Z,1025.52
2023-02-11T07:29:59.363Z,1025.53
2023-02-11T07:30:59.367Z,1025.55
2023-02-11T07:31:59.343Z,1025.60
2023-02-11T07:32:59.328Z,1025.64
2023-02-11T07:33:59.283Z,1025.65
2023-02-11T07:34:59.336Z,1025.67
2023-02-11T07:35:59.235Z,1025.67
2023-02-11T07:36:59.220Z,1025.67
2023-02-11T07:37:59.215Z,1025.68
2023-02-11T07:38:59.228Z,1025.72
2023-02-11T07:39:59.204Z,1025.76
2023-02-11T07:40:59.245Z,1025.80
2023-02-11T07:41:59.239Z,1025.83
2023-02-11T07:42:59.169Z,1025.84
2023-02-11T07:43:59.178Z,1025.82
2023-02-11T07:44:59.146Z,1025.80
2023-02-11T07:45:59.220Z,1025.79
2023-02-11T07:46:59.152Z,1025.79
2023-02-11T07:47:59.136Z,1025.80
2023-02-11T07:48:59.107Z,1025.79
2023-02-11T07:49:59.160Z,1025.78
2023-02-11T07:50:59.137Z,1025.78
2023-02-11T07:51:59.083Z,1025.79
2023-02-11T07:52:59.087Z,1025.81
2023-02-11T07:53:59.068Z,1025.82
2023-02-11T07:54:59.062Z,1025.84
2023-02-11T07:55:59.108Z,1025.85
2023-02-11T07:56:59.122Z,1025.85
2023-02-11T07:57:59.141Z,1025.84
2023-02-11T07:58:59.072Z,1025.83
2023-02-11T07:59:59.061Z,1025.82
2023-02-11T08:00:59.015Z,1025.82
2023-02-11T08:01:59.049Z,1025.81
2023-02-11T08:02:59.084Z,1025.83
2023-02-11T08:03:59.789Z,1025.83
2023-02-11T08:04:58.968Z,1025.85
2023-02-11T08:05:58.927Z,1025.88
2023-02-11T08:06:59.288Z,1025.90
2023-02-11T08:07:58.946Z,1025.92
2023-02-11T08:08:58.901Z,1025.93
2023-02-11T08:09:58.886Z,1025.94
2023-02-11T08:10:58.922Z,1025.95
2023-02-11T08:11:58.931Z,1025.97
2023-02-11T08:12:58.883Z,1025.99
2023-02-11T08:13:59.003Z,1025.98
2023-02-11T08:14:58.982Z,1025.96
2023-02-11T08:15:58.978Z,1025.93
2023-02-11T08:16:58.805Z,1025.91
2023-02-11T08:17:58.867Z,1025.90
2023-02-11T08:18:58.884Z,1025.91
2023-02-11T08:19:58.802Z,1025.92
2023-02-11T08:20:58.842Z,1025.92
2023-02-11T08:21:58.805Z,1025.91
2023-02-11T08:22:58.749Z,1025.91
2023-02-11T08:23:58.777Z,1025.91
2023-02-11T08:24:59.812Z,1025.92
2023-02-11T08:25:58.731Z,1025.91
2023-02-11T08:26:58.776Z,1025.92
2023-02-11T08:27:58.831Z,1025.93
2023-02-11T08:28:58.732Z,1025.95
2023-02-11T08:29:58.692Z,1025.96
2023-02-11T08:30:58.789Z,1025.97
2023-02-11T08:31:58.730Z,1025.98
2023-02-11T08:32:58.701Z,1026.00
2023-02-11T08:33:58.785Z,1026.01
2023-02-11T08:34:58.679Z,1026.04
2023-02-11T08:35:58.780Z,1026.08
2023-02-11T08:36:58.651Z,1026.13
2023-02-11T08:37:58.706Z,1026.16
2023-02-11T08:39:12.201Z,1026.15
2023-02-11T08:39:58.679Z,1026.12
2023-02-11T08:40:58.576Z,1026.09
2023-02-11T08:41:58.563Z,1026.05
2023-02-11T08:42:58.584Z,1026.04
2023-02-11T08:43:58.619Z,1026.04
2023-02-11T08:44:58.651Z,1026.06
2023-02-11T08:46:01.569Z,1026.06
2023-02-11T08:46:58.498Z,1026.06
2023-02-11T08:47:58.508Z,1026.05
2023-02-11T08:48:58.527Z,1026.05
2023-02-11T08:49:58.560Z,1026.04
2023-02-11T08:50:58.496Z,1026.04
2023-02-11T08:51:58.520Z,1026.05
2023-02-11T08:52:58.518Z,1026.06
2023-02-11T08:53:58.445Z,1026.07
2023-02-11T08:54:58.452Z,1026.07
2023-02-11T08:55:58.415Z,1026.08
2023-02-11T08:56:58.426Z,1026.10
2023-02-11T08:57:58.590Z,1026.12
2023-02-11T08:58:58.380Z,1026.13
2023-02-11T08:59:58.462Z,1026.15
2023-02-11T09:00:58.433Z,1026.17
2023-02-11T09:01:58.862Z,1026.20
2023-02-11T09:02:58.388Z,1026.24
2023-02-11T09:03:58.372Z,1026.27
2023-02-11T09:04:58.342Z,1026.29
2023-02-11T09:05:58.348Z,1026.29
2023-02-11T09:06:58.440Z,1026.30
2023-02-11T09:07:58.315Z,1026.31
2023-02-11T09:08:58.304Z,1026.30
2023-02-11T09:09:58.328Z,1026.29
2023-02-11T09:10:58.284Z,1026.28
2023-02-11T09:11:58.265Z,1026.25
2023-02-11T09:12:58.276Z,1026.23
2023-02-11T09:13:58.270Z,1026.24
2023-02-11T09:14:58.230Z,1026.24
2023-02-11T09:15:58.230Z,1026.25
2023-02-11T09:16:58.338Z,1026.24
2023-02-11T09:17:58.230Z,1026.24
2023-02-11T09:18:58.176Z,1026.24
2023-02-11T09:19:58.228Z,1026.25
2023-02-11T09:20:58.218Z,1026.24
2023-02-11T09:21:58.171Z,1026.23
2023-02-11T09:22:58.202Z,1026.24
2023-02-11T09:24:00.048Z,1026.25
2023-02-11T09:24:58.125Z,1026.26
2023-02-11T09:25:58.167Z,1026.29
2023-02-11T09:26:58.124Z,1026.32
2023-02-11T09:27:58.170Z,1026.32
2023-02-11T09:28:58.958Z,1026.32
2023-02-11T09:29:58.855Z,1026.31
2023-02-11T09:30:58.145Z,1026.30
2023-02-11T09:31:58.512Z,1026.29
2023-02-11T09:32:58.060Z,1026.29
2023-02-11T09:33:58.088Z,1026.30
2023-02-11T09:34:58.040Z,1026.31
2023-02-11T09:35:58.863Z,1026.34
2023-02-11T09:36:58.051Z,1026.36
2023-02-11T09:38:02.516Z,1026.40
2023-02-11T09:38:58.035Z,1026.41
2023-02-11T09:39:57.975Z,1026.43
2023-02-11T09:40:57.996Z,1026.44
2023-02-11T09:41:58.080Z,1026.46
2023-02-11T09:43:02.321Z,1026.47
2023-02-11T09:43:58.042Z,1026.48
2023-02-11T09:44:57.963Z,1026.48
2023-02-11T09:45:58.061Z,1026.49
2023-02-11T09:46:57.919Z,1026.47
2023-02-11T09:47:57.894Z,1026.47
2023-02-11T09:48:57.881Z,1026.47
2023-02-11T09:49:57.884Z,1026.46
2023-02-11T09:50:57.873Z,1026.44
2023-02-11T09:51:57.881Z,1026.46
2023-02-11T09:52:57.860Z,1026.47
2023-02-11T09:54:05.167Z,1026.46
2023-02-11T09:54:57.885Z,1026.45
2023-02-11T09:55:57.891Z,1026.48
2023-02-11T09:56:58.658Z,1026.48
2023-02-11T09:57:57.834Z,1026.51
2023-02-11T09:58:57.800Z,1026.54
2023-02-11T09:59:57.834Z,1026.57
2023-02-11T10:00:57.867Z,1026.57
2023-02-11T10:01:57.799Z,1026.57
2023-02-11T10:02:57.735Z,1026.56
2023-02-11T10:03:57.835Z,1026.56
2023-02-11T10:04:57.720Z,1026.55
2023-02-11T10:05:57.723Z,1026.56
2023-02-11T10:06:58.107Z,1026.57
2023-02-11T10:07:57.697Z,1026.56
2023-02-11T10:08:57.701Z,1026.57
2023-02-11T10:09:58.073Z,1026.56
2023-02-11T10:10:57.686Z,1026.56
2023-02-11T10:11:57.678Z,1026.54
2023-02-11T10:12:57.645Z,1026.53
2023-02-11T10:13:57.680Z,1026.53
2023-02-11T10:14:57.639Z,1026.54
2023-02-11T10:15:57.686Z,1026.54
2023-02-11T10:16:57.632Z,1026.55
2023-02-11T10:17:57.665Z,1026.54
2023-02-11T10:18:57.758Z,1026.54
2023-02-11T10:19:57.580Z,1026.53
2023-02-11T10:20:57.577Z,1026.53
2023-02-11T10:21:57.709Z,1026.56
2023-02-11T10:22:57.599Z,1026.57
2023-02-11T10:23:57.599Z,1026.60
2023-02-11T10:24:57.656Z,1026.60
2023-02-11T10:25:58.452Z,1026.61
2023-02-11T10:26:57.526Z,1026.61
2023-02-11T10:27:57.652Z,1026.60
2023-02-11T10:28:57.510Z,1026.60
2023-02-11T10:29:57.826Z,1026.59
2023-02-11T10:30:57.624Z,1026.56
2023-02-11T10:31:58.455Z,1026.55
2023-02-11T10:32:57.462Z,1026.55
2023-02-11T10:33:57.475Z,1026.53
2023-02-11T10:34:57.511Z,1026.52
2023-02-11T10:35:57.439Z,1026.51
2023-02-11T10:36:57.470Z,1026.49
2023-02-11T10:37:57.409Z,1026.48
2023-02-11T10:38:57.398Z,1026.49
2023-02-11T10:39:57.401Z,1026.50
2023-02-11T10:40:58.501Z,1026.49
2023-02-11T10:41:57.825Z,1026.49
2023-02-11T10:42:57.381Z,1026.49
2023-02-11T10:43:57.382Z,1026.51
2023-02-11T10:44:57.356Z,1026.55
2023-02-11T10:45:57.339Z,1026.58
2023-02-11T10:46:59.348Z,1026.57
2023-02-11T10:47:57.309Z,1026.59
2023-02-11T10:48:57.329Z,1026.59
2023-02-11T10:49:57.268Z,1026.59
2023-02-11T10:50:57.268Z,1026.59
2023-02-11T10:51:57.270Z,1026.59
2023-02-11T10:52:57.284Z,1026.58
2023-02-11T10:53:57.244Z,1026.55
2023-02-11T10:54:57.242Z,1026.54
2023-02-11T10:55:57.245Z,1026.49
2023-02-11T10:56:57.294Z,1026.44
2023-02-11T10:57:59.174Z,1026.42
2023-02-11T10:58:57.215Z,1026.41
2023-02-11T10:59:57.201Z,1026.38
2023-02-11T11:00:57.213Z,1026.37
2023-02-11T11:01:57.209Z,1026.35
2023-02-11T11:02:57.236Z,1026.34
2023-02-11T11:03:59.645Z,1026.32
2023-02-11T11:04:57.184Z,1026.31
2023-02-11T11:05:58.576Z,1026.29
2023-02-11T11:06:57.131Z,1026.28
2023-02-11T11:07:57.141Z,1026.28
2023-02-11T11:08:57.214Z,1026.30
2023-02-11T11:09:57.857Z,1026.32
2023-02-11T11:10:57.054Z,1026.33
2023-02-11T11:11:58.624Z,1026.35
2023-02-11T11:12:57.072Z,1026.33
2023-02-11T11:13:57.070Z,1026.33
2023-02-11T11:14:57.082Z,1026.30
2023-02-11T11:15:57.065Z,1026.29
2023-02-11T11:16:57.150Z,1026.26
2023-02-11T14:18:49.835Z,1025.68
2023-02-11T14:19:50.828Z,1025.67
2023-02-11T14:20:56.747Z,1025.66
2023-02-11T14:21:50.792Z,1025.66
2023-02-11T14:22:50.772Z,1025.65
2023-02-11T14:23:50.880Z,1025.66
2023-02-11T14:24:50.758Z,1025.66
2023-02-11T14:25:50.827Z,1025.67
2023-02-11T14:26:50.750Z,1025.68
2023-02-11T14:27:50.702Z,1025.68
2023-02-11T14:28:50.710Z,1025.68
2023-02-11T14:29:50.719Z,1025.67
2023-02-11T14:30:51.319Z,1025.66
2023-02-11T14:31:50.766Z,1025.66
2023-02-11T14:32:50.726Z,1025.66
2023-02-11T14:33:50.666Z,1025.66
2023-02-11T14:34:52.401Z,1025.67
2023-02-11T14:35:50.645Z,1025.66
2023-02-11T14:36:50.679Z,1025.66
2023-02-11T14:37:51.452Z,1025.67
2023-02-11T14:38:50.668Z,1025.67
2023-02-11T14:39:50.591Z,1025.67
2023-02-11T14:40:50.850Z,1025.69
2023-02-11T14:41:51.500Z,1025.71
2023-02-11T14:42:50.562Z,1025.74
2023-02-11T14:43:50.565Z,1025.74
2023-02-11T14:44:50.564Z,1025.75
2023-02-11T14:45:50.556Z,1025.76
2023-02-11T14:46:50.523Z,1025.73
2023-02-11T14:47:50.519Z,1025.71
2023-02-11T14:48:50.545Z,1025.72
2023-02-11T14:49:51.239Z,1025.72
2023-02-11T14:50:51.201Z,1025.74
2023-02-11T14:51:50.722Z,1025.76
2023-02-11T14:52:50.509Z,1025.79
2023-02-11T14:53:50.501Z,1025.81
2023-02-11T14:54:50.454Z,1025.83
2023-02-11T14:55:50.476Z,1025.84
2023-02-11T14:56:50.446Z,1025.86
2023-02-11T14:57:50.467Z,1025.88
2023-02-11T14:58:50.404Z,1025.90
2023-02-11T14:59:50.434Z,1025.91
2023-02-11T15:00:50.671Z,1025.94
2023-02-11T15:01:50.507Z,1025.94
2023-02-11T15:02:50.456Z,1025.94
2023-02-11T15:03:54.491Z,1025.94
2023-02-11T15:04:50.410Z,1025.93
2023-02-11T15:05:50.340Z,1025.92